sensor_id;sensor_type;location;lat;lon;timestamp;temperature;humidity
21163;DHT22;10739;52.198;20.908;2023-03-23T00:01:28;8.20;99.90
21163;DHT22;10739;52.198;20.908;2023-03-23T00:03:58;8.20;99.90
21163;DHT22;10739;52.198;20.908;2023-03-23T00:06:27;8.20;99.90
21163;DHT22;10739;52.198;20.908;2023-03-23T00:08:54;8.20;99.90
21163;DHT22;10739;52.198;20.908;2023-03-23T00:11:30;8.10;99.90
21163;DHT22;10739;52.198;20.908;2023-03-23T00:13:59;8.20;99.90
21163;DHT22;10739;52.198;20.908;2023-03-23T00:16:32;8.10;99.90
21163;DHT22;10739;52.198;20.908;2023-03-23T00:19:01;8.20;99.90
21163;DHT22;10739;52.198;20.908;2023-03-23T00:21:34;8.20;99.90
21163;DHT22;10739;52.198;20.908;2023-03-23T00:24:17;8.10;99.90
21163;DHT22;10739;52.198;20.908;2023-03-23T00:26:46;8.10;99.90
21163;DHT22;10739;52.198;20.908;2023-03-23T00:29:18;8.10;99.90
21163;DHT22;10739;52.198;20.908;2023-03-23T00:31:47;8.10;99.90
21163;DHT22;10739;52.198;20.908;2023-03-23T00:34:16;8.10;99.90
21163;DHT22;10739;52.198;20.908;2023-03-23T00:36:54;8.10;99.90
21163;DHT22;10739;52.198;20.908;2023-03-23T00:39:25;8.10;99.90
21163;DHT22;10739;52.198;20.908;2023-03-23T00:41:53;8.00;99.90
21163;DHT22;10739;52.198;20.908;2023-03-23T00:44:31;8.00;99.90
21163;DHT22;10739;52.198;20.908;2023-03-23T00:47:02;8.10;99.90
21163;DHT22;10739;52.198;20.908;2023-03-23T00:49:29;8.00;99.90
21163;DHT22;10739;52.198;20.908;2023-03-23T00:51:57;8.00;99.90
21163;DHT22;10739;52.198;20.908;2023-03-23T00:54:25;8.10;99.90
21163;DHT22;10739;52.198;20.908;2023-03-23T00:56:52;8.10;99.90
21163;DHT22;10739;52.198;20.908;2023-03-23T00:59:19;8.00;99.90
21163;DHT22;10739;52.198;20.908;2023-03-23T01:01:46;8.10;99.90
21163;DHT22;10739;52.198;20.908;2023-03-23T01:04:24;8.00;99.90
21163;DHT22;10739;52.198;20.908;2023-03-23T01:06:51;8.10;99.90
21163;DHT22;10739;52.198;20.908;2023-03-23T01:09:18;8.10;99.90
21163;DHT22;10739;52.198;20.908;2023-03-23T01:11:48;8.10;99.90
21163;DHT22;10739;52.198;20.908;2023-03-23T01:14:18;8.10;99.90
21163;DHT22;10739;52.198;20.908;2023-03-23T01:16:45;8.20;99.90
21163;DHT22;10739;52.198;20.908;2023-03-23T01:19:11;8.30;99.90
21163;DHT22;10739;52.198;20.908;2023-03-23T01:21:38;8.30;99.90
21163;DHT22;10739;52.198;20.908;2023-03-23T01:24:05;8.40;99.90
21163;DHT22;10739;52.198;20.908;2023-03-23T01:26:32;8.40;99.90
21163;DHT22;10739;52.198;20.908;2023-03-23T01:28:58;8.40;99.90
21163;DHT22;10739;52.198;20.908;2023-03-23T01:31:25;8.40;99.90
21163;DHT22;10739;52.198;20.908;2023-03-23T01:33:52;8.60;99.90
21163;DHT22;10739;52.198;20.908;2023-03-23T01:36:27;8.60;99.90
21163;DHT22;10739;52.198;20.908;2023-03-23T01:38:59;8.70;99.90
21163;DHT22;10739;52.198;20.908;2023-03-23T01:41:29;8.70;99.90
21163;DHT22;10739;52.198;20.908;2023-03-23T01:44:02;8.60;99.90
21163;DHT22;10739;52.198;20.908;2023-03-23T01:46:33;8.70;99.90
21163;DHT22;10739;52.198;20.908;2023-03-23T01:49:05;8.70;99.90
21163;DHT22;10739;52.198;20.908;2023-03-23T01:51:37;8.80;99.90
21163;DHT22;10739;52.198;20.908;2023-03-23T01:54:13;8.80;99.90
21163;DHT22;10739;52.198;20.908;2023-03-23T01:56:54;8.80;99.90
21163;DHT22;10739;52.198;20.908;2023-03-23T10:05:29;16.50;95.70
21163;DHT22;10739;52.198;20.908;2023-03-23T10:08:11;19.10;76.00
21163;DHT22;10739;52.198;20.908;2023-03-23T10:16:15;20.30;64.80
21163;DHT22;10739;52.198;20.908;2023-03-23T10:19:18;20.40;61.20
21163;DHT22;10739;52.198;20.908;2023-03-23T10:21:52;20.10;61.40
21163;DHT22;10739;52.198;20.908;2023-03-23T10:25:22;20.50;61.20
21163;DHT22;10739;52.198;20.908;2023-03-23T10:30:36;20.30;59.80
21163;DHT22;10739;52.198;20.908;2023-03-23T10:33:30;20.10;59.60
21163;DHT22;10739;52.198;20.908;2023-03-23T10:41:39;19.00;64.60
21163;DHT22;10739;52.198;20.908;2023-03-23T10:44:16;18.80;64.80
21163;DHT22;10739;52.198;20.908;2023-03-23T10:46:51;18.40;66.90
21163;DHT22;10739;52.198;20.908;2023-03-23T10:49:27;18.30;66.60
21163;DHT22;10739;52.198;20.908;2023-03-23T10:57:31;18.70;69.40
21163;DHT22;10739;52.198;20.908;2023-03-23T11:00:18;18.40;70.10
21163;DHT22;10739;52.198;20.908;2023-03-23T11:03:05;18.60;71.40
21163;DHT22;10739;52.198;20.908;2023-03-23T11:08:19;18.90;67.80
21163;DHT22;10739;52.198;20.908;2023-03-23T11:10:54;18.90;67.80
21163;DHT22;10739;52.198;20.908;2023-03-23T11:13:23;18.90;61.80
21163;DHT22;10739;52.198;20.908;2023-03-23T11:15:57;19.00;60.30
21163;DHT22;10739;52.198;20.908;2023-03-23T11:18:25;19.00;59.00
21163;DHT22;10739;52.198;20.908;2023-03-23T11:20:56;19.00;57.80
21163;DHT22;10739;52.198;20.908;2023-03-23T11:23:27;18.80;58.10
21163;DHT22;10739;52.198;20.908;2023-03-23T11:26:30;18.80;57.50
21163;DHT22;10739;52.198;20.908;2023-03-23T11:31:33;19.20;57.30
21163;DHT22;10739;52.198;20.908;2023-03-23T11:34:04;19.00;57.40
21163;DHT22;10739;52.198;20.908;2023-03-23T11:36:42;19.10;58.00
21163;DHT22;10739;52.198;20.908;2023-03-23T11:39:28;19.30;58.50
21163;DHT22;10739;52.198;20.908;2023-03-23T11:42:12;19.20;58.70
21163;DHT22;10739;52.198;20.908;2023-03-23T11:44:54;19.20;59.90
21163;DHT22;10739;52.198;20.908;2023-03-23T11:47:43;19.30;60.10
21163;DHT22;10739;52.198;20.908;2023-03-23T11:50:54;19.20;60.30
21163;DHT22;10739;52.198;20.908;2023-03-23T11:53:57;19.20;60.00
21163;DHT22;10739;52.198;20.908;2023-03-23T11:59:11;19.10;60.50
21163;DHT22;10739;52.198;20.908;2023-03-23T12:02:13;19.30;59.90
21163;DHT22;10739;52.198;20.908;2023-03-23T12:07:38;19.50;59.10
21163;DHT22;10739;52.198;20.908;2023-03-23T12:10:51;19.60;58.70
21163;DHT22;10739;52.198;20.908;2023-03-23T12:16:16;19.20;59.70
21163;DHT22;10739;52.198;20.908;2023-03-23T12:19:07;19.10;59.80
21163;DHT22;10739;52.198;20.908;2023-03-23T12:28:16;19.00;61.00
21163;DHT22;10739;52.198;20.908;2023-03-23T12:31:15;19.30;60.70
21163;DHT22;10739;52.198;20.908;2023-03-23T12:44:25;18.90;62.30
21163;DHT22;10739;52.198;20.908;2023-03-23T12:50:26;19.00;62.90
21163;DHT22;10739;52.198;20.908;2023-03-23T12:53:27;19.20;62.40
21163;DHT22;10739;52.198;20.908;2023-03-23T12:56:17;19.40;62.10
21163;DHT22;10739;52.198;20.908;2023-03-23T12:58:53;19.30;62.20
21163;DHT22;10739;52.198;20.908;2023-03-23T13:01:30;19.50;62.40
21163;DHT22;10739;52.198;20.908;2023-03-23T13:04:27;19.30;62.40
21163;DHT22;10739;52.198;20.908;2023-03-23T13:07:01;19.30;62.50
21163;DHT22;10739;52.198;20.908;2023-03-23T13:09:50;19.20;62.80
21163;DHT22;10739;52.198;20.908;2023-03-23T13:12:30;19.20;63.70
21163;DHT22;10739;52.198;20.908;2023-03-23T13:18:04;19.00;64.30
21163;DHT22;10739;52.198;20.908;2023-03-23T13:23:31;18.70;65.90
21163;DHT22;10739;52.198;20.908;2023-03-23T13:26:18;18.60;64.90
21163;DHT22;10739;52.198;20.908;2023-03-23T13:34:23;18.50;66.70
21163;DHT22;10739;52.198;20.908;2023-03-23T13:36:58;18.40;67.00
21163;DHT22;10739;52.198;20.908;2023-03-23T13:42:49;18.40;66.70
21163;DHT22;10739;52.198;20.908;2023-03-23T13:50:50;18.50;65.70
21163;DHT22;10739;52.198;20.908;2023-03-23T13:53:44;18.50;66.20
21163;DHT22;10739;52.198;20.908;2023-03-23T13:56:35;18.50;66.70
21163;DHT22;10739;52.198;20.908;2023-03-23T13:59:28;18.30;68.00
21163;DHT22;10739;52.198;20.908;2023-03-23T14:02:30;18.20;68.80
21163;DHT22;10739;52.198;20.908;2023-03-23T14:05:25;18.10;70.60
21163;DHT22;10739;52.198;20.908;2023-03-23T14:07:58;18.10;71.50
21163;DHT22;10739;52.198;20.908;2023-03-23T14:10:40;18.00;72.20
21163;DHT22;10739;52.198;20.908;2023-03-23T14:13:20;17.90;74.00
21163;DHT22;10739;52.198;20.908;2023-03-23T14:18:37;17.60;77.90
21163;DHT22;10739;52.198;20.908;2023-03-23T14:21:05;17.50;80.00
21163;DHT22;10739;52.198;20.908;2023-03-23T14:23:39;17.40;81.90
21163;DHT22;10739;52.198;20.908;2023-03-23T14:26:16;17.40;82.50
21163;DHT22;10739;52.198;20.908;2023-03-23T14:28:49;17.40;82.40
21163;DHT22;10739;52.198;20.908;2023-03-23T14:31:23;17.30;82.40
21163;DHT22;10739;52.198;20.908;2023-03-23T14:33:53;17.30;84.70
21163;DHT22;10739;52.198;20.908;2023-03-23T14:36:29;17.30;85.40
21163;DHT22;10739;52.198;20.908;2023-03-23T14:39:32;17.20;86.70
21163;DHT22;10739;52.198;20.908;2023-03-23T14:41:55;17.10;88.90
21163;DHT22;10739;52.198;20.908;2023-03-23T14:44:31;17.10;90.40
21163;DHT22;10739;52.198;20.908;2023-03-23T14:47:05;17.00;90.10
21163;DHT22;10739;52.198;20.908;2023-03-23T14:49:38;16.90;90.90
21163;DHT22;10739;52.198;20.908;2023-03-23T14:52:15;16.90;91.00
21163;DHT22;10739;52.198;20.908;2023-03-23T14:54:44;16.80;91.50
21163;DHT22;10739;52.198;20.908;2023-03-23T14:59:56;16.70;92.50
21163;DHT22;10739;52.198;20.908;2023-03-23T15:02:27;16.70;93.10
21163;DHT22;10739;52.198;20.908;2023-03-23T15:05:03;16.60;93.50
21163;DHT22;10739;52.198;20.908;2023-03-23T15:07:38;16.60;93.80
21163;DHT22;10739;52.198;20.908;2023-03-23T15:10:09;16.50;94.20
21163;DHT22;10739;52.198;20.908;2023-03-23T15:12:45;16.50;94.70
21163;DHT22;10739;52.198;20.908;2023-03-23T15:15:29;16.50;94.90
21163;DHT22;10739;52.198;20.908;2023-03-23T15:17:59;16.40;95.40
21163;DHT22;10739;52.198;20.908;2023-03-23T15:23:14;16.30;96.20
21163;DHT22;10739;52.198;20.908;2023-03-23T15:25:48;16.30;96.50
21163;DHT22;10739;52.198;20.908;2023-03-23T15:28:20;16.20;96.60
21163;DHT22;10739;52.198;20.908;2023-03-23T15:31:03;16.20;96.60
21163;DHT22;10739;52.198;20.908;2023-03-23T15:33:39;16.10;97.20
21163;DHT22;10739;52.198;20.908;2023-03-23T15:36:16;16.10;97.10
21163;DHT22;10739;52.198;20.908;2023-03-23T15:38:45;16.10;97.50
21163;DHT22;10739;52.198;20.908;2023-03-23T15:41:26;16.10;97.90
21163;DHT22;10739;52.198;20.908;2023-03-23T15:43:57;16.00;98.00
21163;DHT22;10739;52.198;20.908;2023-03-23T15:46:34;16.00;98.20
21163;DHT22;10739;52.198;20.908;2023-03-23T15:51:29;16.00;98.20
21163;DHT22;10739;52.198;20.908;2023-03-23T15:53:58;16.00;98.40
21163;DHT22;10739;52.198;20.908;2023-03-23T15:56:24;16.00;98.60
21163;DHT22;10739;52.198;20.908;2023-03-23T15:58:52;15.90;98.40
21163;DHT22;10739;52.198;20.908;2023-03-23T16:01:24;16.00;98.30
21163;DHT22;10739;52.198;20.908;2023-03-23T16:04:05;16.00;98.50
21163;DHT22;10739;52.198;20.908;2023-03-23T16:06:36;15.90;98.70
21163;DHT22;10739;52.198;20.908;2023-03-23T16:09:04;15.90;98.80
21163;DHT22;10739;52.198;20.908;2023-03-23T16:11:31;15.80;99.20
21163;DHT22;10739;52.198;20.908;2023-03-23T16:13:59;15.80;99.70
21163;DHT22;10739;52.198;20.908;2023-03-23T16:16:30;15.70;99.90
21163;DHT22;10739;52.198;20.908;2023-03-23T16:18:59;15.70;99.90
21163;DHT22;10739;52.198;20.908;2023-03-23T16:21:25;15.60;99.90
21163;DHT22;10739;52.198;20.908;2023-03-23T16:23:52;15.50;99.90
21163;DHT22;10739;52.198;20.908;2023-03-23T16:26:19;15.50;99.90
21163;DHT22;10739;52.198;20.908;2023-03-23T16:28:45;15.40;99.90
21163;DHT22;10739;52.198;20.908;2023-03-23T16:31:11;15.30;99.90
21163;DHT22;10739;52.198;20.908;2023-03-23T16:33:38;15.20;99.90
21163;DHT22;10739;52.198;20.908;2023-03-23T16:36:05;15.10;99.90
21163;DHT22;10739;52.198;20.908;2023-03-23T16:38:31;15.00;99.90
21163;DHT22;10739;52.198;20.908;2023-03-23T16:40:58;15.00;99.90
21163;DHT22;10739;52.198;20.908;2023-03-23T16:43:24;14.90;99.90
21163;DHT22;10739;52.198;20.908;2023-03-23T16:45:54;14.90;99.90
21163;DHT22;10739;52.198;20.908;2023-03-23T16:48:21;14.80;99.90
21163;DHT22;10739;52.198;20.908;2023-03-23T16:50:49;14.80;99.90
21163;DHT22;10739;52.198;20.908;2023-03-23T16:53:16;14.80;99.90
21163;DHT22;10739;52.198;20.908;2023-03-23T16:55:43;14.70;99.90
21163;DHT22;10739;52.198;20.908;2023-03-23T16:58:14;14.70;99.90
21163;DHT22;10739;52.198;20.908;2023-03-23T17:00:41;14.70;99.90
21163;DHT22;10739;52.198;20.908;2023-03-23T17:03:08;14.60;99.90
21163;DHT22;10739;52.198;20.908;2023-03-23T17:05:36;14.60;99.90
21163;DHT22;10739;52.198;20.908;2023-03-23T17:08:05;14.50;99.90
21163;DHT22;10739;52.198;20.908;2023-03-23T17:10:32;14.50;99.90
21163;DHT22;10739;52.198;20.908;2023-03-23T17:12:59;14.50;99.90
21163;DHT22;10739;52.198;20.908;2023-03-23T17:15:26;14.40;99.90
21163;DHT22;10739;52.198;20.908;2023-03-23T17:17:53;14.40;99.90
21163;DHT22;10739;52.198;20.908;2023-03-23T17:20:19;14.40;99.90
21163;DHT22;10739;52.198;20.908;2023-03-23T17:22:46;14.30;99.90
21163;DHT22;10739;52.198;20.908;2023-03-23T17:25:13;14.30;99.90
21163;DHT22;10739;52.198;20.908;2023-03-23T17:27:40;14.30;99.90
21163;DHT22;10739;52.198;20.908;2023-03-23T17:30:08;14.30;99.90
21163;DHT22;10739;52.198;20.908;2023-03-23T17:32:35;14.20;99.90
21163;DHT22;10739;52.198;20.908;2023-03-23T17:35:03;14.20;99.90
21163;DHT22;10739;52.198;20.908;2023-03-23T17:37:34;14.20;99.90
21163;DHT22;10739;52.198;20.908;2023-03-23T17:40:02;14.20;99.90
21163;DHT22;10739;52.198;20.908;2023-03-23T17:42:33;14.20;99.90
21163;DHT22;10739;52.198;20.908;2023-03-23T17:44:59;14.10;99.90
21163;DHT22;10739;52.198;20.908;2023-03-23T17:47:25;14.10;99.90
21163;DHT22;10739;52.198;20.908;2023-03-23T17:49:51;14.10;99.90
21163;DHT22;10739;52.198;20.908;2023-03-23T17:52:18;14.10;99.90
21163;DHT22;10739;52.198;20.908;2023-03-23T17:54:44;14.10;99.90
21163;DHT22;10739;52.198;20.908;2023-03-23T17:57:10;14.10;99.90
21163;DHT22;10739;52.198;20.908;2023-03-23T17:59:36;14.10;99.90
21163;DHT22;10739;52.198;20.908;2023-03-23T18:02:03;14.10;99.90
21163;DHT22;10739;52.198;20.908;2023-03-23T18:04:29;14.10;99.90
21163;DHT22;10739;52.198;20.908;2023-03-23T18:06:56;14.00;99.90
21163;DHT22;10739;52.198;20.908;2023-03-23T18:09:23;14.00;99.90
21163;DHT22;10739;52.198;20.908;2023-03-23T18:11:51;14.00;99.90
21163;DHT22;10739;52.198;20.908;2023-03-23T18:14:18;14.00;99.90
21163;DHT22;10739;52.198;20.908;2023-03-23T18:16:45;14.00;99.90
21163;DHT22;10739;52.198;20.908;2023-03-23T18:19:11;13.90;99.90
21163;DHT22;10739;52.198;20.908;2023-03-23T18:21:37;13.90;99.90
21163;DHT22;10739;52.198;20.908;2023-03-23T18:24:04;13.90;99.90
21163;DHT22;10739;52.198;20.908;2023-03-23T18:26:30;13.90;99.90
21163;DHT22;10739;52.198;20.908;2023-03-23T18:28:57;13.90;99.90
21163;DHT22;10739;52.198;20.908;2023-03-23T18:31:23;13.90;99.90
21163;DHT22;10739;52.198;20.908;2023-03-23T18:33:50;13.90;99.90
21163;DHT22;10739;52.198;20.908;2023-03-23T18:36:22;13.90;99.90
21163;DHT22;10739;52.198;20.908;2023-03-23T18:38:54;13.90;99.90
21163;DHT22;10739;52.198;20.908;2023-03-23T18:41:21;13.90;99.90
21163;DHT22;10739;52.198;20.908;2023-03-23T18:43:48;14.00;99.90
21163;DHT22;10739;52.198;20.908;2023-03-23T18:46:14;14.00;99.90
21163;DHT22;10739;52.198;20.908;2023-03-23T18:48:41;14.00;99.90
21163;DHT22;10739;52.198;20.908;2023-03-23T18:51:07;14.00;99.90
21163;DHT22;10739;52.198;20.908;2023-03-23T18:53:34;14.00;99.90
21163;DHT22;10739;52.198;20.908;2023-03-23T18:56:28;13.90;99.90
21163;DHT22;10739;52.198;20.908;2023-03-23T18:58:54;13.90;99.90
21163;DHT22;10739;52.198;20.908;2023-03-23T19:01:20;13.90;99.90
21163;DHT22;10739;52.198;20.908;2023-03-23T19:03:47;14.00;99.90
21163;DHT22;10739;52.198;20.908;2023-03-23T19:06:19;14.00;99.90
21163;DHT22;10739;52.198;20.908;2023-03-23T19:08:47;14.00;99.90
21163;DHT22;10739;52.198;20.908;2023-03-23T19:11:15;14.10;99.90
21163;DHT22;10739;52.198;20.908;2023-03-23T19:13:42;14.00;99.90
21163;DHT22;10739;52.198;20.908;2023-03-23T19:16:08;14.10;99.90
21163;DHT22;10739;52.198;20.908;2023-03-23T19:18:35;14.10;99.90
21163;DHT22;10739;52.198;20.908;2023-03-23T19:21:02;14.10;99.90
21163;DHT22;10739;52.198;20.908;2023-03-23T19:23:29;14.10;99.90
21163;DHT22;10739;52.198;20.908;2023-03-23T19:25:56;14.10;99.90
21163;DHT22;10739;52.198;20.908;2023-03-23T19:28:22;14.10;99.90
21163;DHT22;10739;52.198;20.908;2023-03-23T19:30:53;14.00;99.90
21163;DHT22;10739;52.198;20.908;2023-03-23T19:33:23;14.00;99.90
21163;DHT22;10739;52.198;20.908;2023-03-23T19:35:52;14.00;99.90
21163;DHT22;10739;52.198;20.908;2023-03-23T19:38:19;14.10;99.90
21163;DHT22;10739;52.198;20.908;2023-03-23T19:40:55;14.00;99.90
21163;DHT22;10739;52.198;20.908;2023-03-23T19:43:25;14.00;99.90
21163;DHT22;10739;52.198;20.908;2023-03-23T19:45:53;14.00;99.90
21163;DHT22;10739;52.198;20.908;2023-03-23T19:48:20;14.00;99.90
21163;DHT22;10739;52.198;20.908;2023-03-23T19:50:53;14.10;99.90
21163;DHT22;10739;52.198;20.908;2023-03-23T19:53:22;14.00;99.90
21163;DHT22;10739;52.198;20.908;2023-03-23T19:55:49;14.10;99.90
21163;DHT22;10739;52.198;20.908;2023-03-23T19:58:15;14.10;99.90
21163;DHT22;10739;52.198;20.908;2023-03-23T20:00:41;14.00;99.90
21163;DHT22;10739;52.198;20.908;2023-03-23T20:03:08;14.00;99.90
21163;DHT22;10739;52.198;20.908;2023-03-23T20:05:35;14.00;99.90
21163;DHT22;10739;52.198;20.908;2023-03-23T20:08:02;13.90;99.90
21163;DHT22;10739;52.198;20.908;2023-03-23T20:10:29;13.90;99.90
21163;DHT22;10739;52.198;20.908;2023-03-23T20:12:57;14.00;99.90
21163;DHT22;10739;52.198;20.908;2023-03-23T20:15:23;14.00;99.90
21163;DHT22;10739;52.198;20.908;2023-03-23T20:17:50;13.90;99.90
21163;DHT22;10739;52.198;20.908;2023-03-23T20:20:16;13.90;99.90
21163;DHT22;10739;52.198;20.908;2023-03-23T20:22:44;13.90;99.90
21163;DHT22;10739;52.198;20.908;2023-03-23T20:25:11;13.90;99.90
21163;DHT22;10739;52.198;20.908;2023-03-23T20:27:38;13.90;99.90
21163;DHT22;10739;52.198;20.908;2023-03-23T20:30:05;13.90;99.90
21163;DHT22;10739;52.198;20.908;2023-03-23T20:32:33;13.80;99.90
21163;DHT22;10739;52.198;20.908;2023-03-23T20:35:07;13.80;99.90
21163;DHT22;10739;52.198;20.908;2023-03-23T20:37:37;13.80;99.90
21163;DHT22;10739;52.198;20.908;2023-03-23T20:40:10;13.80;99.90
21163;DHT22;10739;52.198;20.908;2023-03-23T20:42:40;13.80;99.90
21163;DHT22;10739;52.198;20.908;2023-03-23T20:45:09;13.70;99.90
21163;DHT22;10739;52.198;20.908;2023-03-23T20:47:38;13.70;99.90
21163;DHT22;10739;52.198;20.908;2023-03-23T20:50:05;13.70;99.90
21163;DHT22;10739;52.198;20.908;2023-03-23T20:52:33;13.60;99.90
21163;DHT22;10739;52.198;20.908;2023-03-23T20:55:00;13.60;99.90
21163;DHT22;10739;52.198;20.908;2023-03-23T20:57:27;13.50;99.90
21163;DHT22;10739;52.198;20.908;2023-03-23T20:59:54;13.50;99.90
21163;DHT22;10739;52.198;20.908;2023-03-23T21:02:21;13.50;99.90
21163;DHT22;10739;52.198;20.908;2023-03-23T21:04:50;13.40;99.90
21163;DHT22;10739;52.198;20.908;2023-03-23T21:07:17;13.40;99.90
21163;DHT22;10739;52.198;20.908;2023-03-23T21:09:47;13.40;99.90
21163;DHT22;10739;52.198;20.908;2023-03-23T21:12:14;13.30;99.90
21163;DHT22;10739;52.198;20.908;2023-03-23T21:14:41;13.30;99.90
21163;DHT22;10739;52.198;20.908;2023-03-23T21:17:09;13.30;99.90
21163;DHT22;10739;52.198;20.908;2023-03-23T21:19:35;13.30;99.90
21163;DHT22;10739;52.198;20.908;2023-03-23T21:22:02;13.30;99.90
21163;DHT22;10739;52.198;20.908;2023-03-23T21:24:30;13.30;99.90
21163;DHT22;10739;52.198;20.908;2023-03-23T21:26:58;13.30;99.90
21163;DHT22;10739;52.198;20.908;2023-03-23T21:29:27;13.30;99.90
21163;DHT22;10739;52.198;20.908;2023-03-23T21:31:54;13.20;99.90
21163;DHT22;10739;52.198;20.908;2023-03-23T21:34:22;13.20;99.90
21163;DHT22;10739;52.198;20.908;2023-03-23T21:36:48;13.20;99.90
21163;DHT22;10739;52.198;20.908;2023-03-23T21:39:15;13.20;99.90
21163;DHT22;10739;52.198;20.908;2023-03-23T21:41:41;13.10;99.90
21163;DHT22;10739;52.198;20.908;2023-03-23T21:44:07;13.10;99.90
21163;DHT22;10739;52.198;20.908;2023-03-23T21:46:38;13.10;99.90
21163;DHT22;10739;52.198;20.908;2023-03-23T21:49:07;13.10;99.90
21163;DHT22;10739;52.198;20.908;2023-03-23T21:51:39;13.00;99.90
21163;DHT22;10739;52.198;20.908;2023-03-23T21:54:06;13.00;99.90
21163;DHT22;10739;52.198;20.908;2023-03-23T21:56:32;13.00;99.90
21163;DHT22;10739;52.198;20.908;2023-03-23T21:58:59;12.90;99.90
21163;DHT22;10739;52.198;20.908;2023-03-23T22:01:26;12.90;99.90
21163;DHT22;10739;52.198;20.908;2023-03-23T22:03:56;12.90;99.90
21163;DHT22;10739;52.198;20.908;2023-03-23T22:06:24;12.80;99.90
21163;DHT22;10739;52.198;20.908;2023-03-23T22:08:54;12.70;99.90
21163;DHT22;10739;52.198;20.908;2023-03-23T22:11:23;12.70;99.90
21163;DHT22;10739;52.198;20.908;2023-03-23T22:13:53;12.60;99.90
21163;DHT22;10739;52.198;20.908;2023-03-23T22:16:21;12.60;99.90
21163;DHT22;10739;52.198;20.908;2023-03-23T22:18:48;12.50;99.90
21163;DHT22;10739;52.198;20.908;2023-03-23T22:21:17;12.50;99.90
21163;DHT22;10739;52.198;20.908;2023-03-23T22:23:44;12.40;99.90
21163;DHT22;10739;52.198;20.908;2023-03-23T22:26:12;12.40;99.90
21163;DHT22;10739;52.198;20.908;2023-03-23T22:28:39;12.40;99.90
21163;DHT22;10739;52.198;20.908;2023-03-23T22:31:12;12.40;99.90
21163;DHT22;10739;52.198;20.908;2023-03-23T22:33:42;12.40;99.90
21163;DHT22;10739;52.198;20.908;2023-03-23T22:36:09;12.30;99.90
21163;DHT22;10739;52.198;20.908;2023-03-23T22:38:38;12.30;99.90
21163;DHT22;10739;52.198;20.908;2023-03-23T22:41:06;12.40;99.90
21163;DHT22;10739;52.198;20.908;2023-03-23T22:43:35;12.40;99.90
21163;DHT22;10739;52.198;20.908;2023-03-23T22:46:03;12.40;99.90
21163;DHT22;10739;52.198;20.908;2023-03-23T22:48:30;12.40;99.90
21163;DHT22;10739;52.198;20.908;2023-03-23T22:50:57;12.40;99.90
21163;DHT22;10739;52.198;20.908;2023-03-23T22:53:24;12.50;99.90
21163;DHT22;10739;52.198;20.908;2023-03-23T22:55:53;12.50;99.90
21163;DHT22;10739;52.198;20.908;2023-03-23T22:58:20;12.60;99.90
21163;DHT22;10739;52.198;20.908;2023-03-23T23:00:58;12.60;99.90
21163;DHT22;10739;52.198;20.908;2023-03-23T23:03:27;12.60;99.90
21163;DHT22;10739;52.198;20.908;2023-03-23T23:05:55;12.60;99.90
21163;DHT22;10739;52.198;20.908;2023-03-23T23:08:23;12.70;99.90
21163;DHT22;10739;52.198;20.908;2023-03-23T23:10:53;12.80;99.90
21163;DHT22;10739;52.198;20.908;2023-03-23T23:13:22;12.80;99.90
21163;DHT22;10739;52.198;20.908;2023-03-23T23:15:52;12.80;99.90
21163;DHT22;10739;52.198;20.908;2023-03-23T23:18:22;12.90;99.90
21163;DHT22;10739;52.198;20.908;2023-03-23T23:20:52;12.90;99.90
21163;DHT22;10739;52.198;20.908;2023-03-23T23:23:21;12.90;99.90
21163;DHT22;10739;52.198;20.908;2023-03-23T23:25:49;12.80;99.90
21163;DHT22;10739;52.198;20.908;2023-03-23T23:28:16;12.80;99.90
21163;DHT22;10739;52.198;20.908;2023-03-23T23:30:44;12.70;99.90
21163;DHT22;10739;52.198;20.908;2023-03-23T23:33:10;12.70;99.90
21163;DHT22;10739;52.198;20.908;2023-03-23T23:35:37;12.60;99.90
21163;DHT22;10739;52.198;20.908;2023-03-23T23:38:06;12.50;99.90
21163;DHT22;10739;52.198;20.908;2023-03-23T23:40:34;12.50;99.90
21163;DHT22;10739;52.198;20.908;2023-03-23T23:43:02;12.40;99.90
21163;DHT22;10739;52.198;20.908;2023-03-23T23:45:29;12.30;99.90
21163;DHT22;10739;52.198;20.908;2023-03-23T23:47:56;12.20;99.90
21163;DHT22;10739;52.198;20.908;2023-03-23T23:50:23;12.10;99.90
21163;DHT22;10739;52.198;20.908;2023-03-23T23:52:49;12.00;99.90
21163;DHT22;10739;52.198;20.908;2023-03-23T23:55:17;12.00;99.90
21163;DHT22;10739;52.198;20.908;2023-03-23T23:57:46;11.90;99.90
